Time;durP1;ratioP1;P1;durP2;ratioP2;P2;SDS_P1;SDS_P2;PMS_P1;PMS_P2;Temp;Humidity;BMP_temperature;BMP_pressure;BME280_temperature;BME280_humidity;BME280_pressure;Samples;Min_cycle;Max_cycle;Signal;HPM_P1;HPM_P2
2021/11/13 00:01:31;;;;;;;22.92;14.32;;;;;;;0.86;67.81;93907.19;5091697;28;20036;-58
2021/11/13 00:03:57;;;;;;;27.67;16.55;;;;;;;1.07;66.23;93914.09;5111117;28;20454;-56
2021/11/13 00:06:23;;;;;;;24.55;14.63;;;;;;;1.06;66.63;93909.16;5110779;28;20027;-58
2021/11/13 00:08:48;;;;;;;31.63;17.85;;;;;;;0.95;66.52;93890.75;5111091;28;20024;-57
2021/11/13 00:11:14;;;;;;;30.98;18.02;;;;;;;0.81;67.28;93915.25;5110117;28;20042;-54
2021/11/13 00:13:40;;;;;;;30.63;18.67;;;;;;;0.32;68.04;93903.22;5105014;28;20020;-55
2021/11/13 00:16:06;;;;;;;35.25;19.80;;;;;;;0.80;68.02;93919.97;5111169;28;20492;-56
2021/11/13 00:18:35;;;;;;;35.00;20.10;;;;;;;0.84;67.73;93925.94;5096507;28;20028;-52
2021/11/13 00:21:02;;;;;;;31.63;18.58;;;;;;;0.78;67.70;93923.13;5090611;28;20020;-52
2021/11/13 00:23:28;;;;;;;27.10;17.38;;;;;;;0.80;67.25;93906.38;5090438;28;20032;-52
2021/11/13 00:25:54;;;;;;;36.15;20.33;;;;;;;0.81;66.78;93920.69;5090342;28;20519;-52
2021/11/13 00:28:20;;;;;;;34.33;19.88;;;;;;;0.62;67.13;93898.47;5090213;28;20038;-53
2021/11/13 00:30:45;;;;;;;28.17;15.52;;;;;;;0.64;66.74;93928.63;5090654;28;20020;-55
2021/11/13 00:33:11;;;;;;;27.10;16.02;;;;;;;0.43;67.60;93927.09;5090626;28;20020;-52
2021/11/13 00:35:36;;;;;;;29.15;14.73;;;;;;;0.66;66.98;93916.06;5090288;28;20031;-58
2021/11/13 00:38:02;;;;;;;17.20;10.80;;;;;;;0.46;66.62;93921.44;5089985;28;20055;-58
2021/11/13 00:40:27;;;;;;;17.92;11.13;;;;;;;0.63;66.13;93921.69;5090134;28;20036;-56
2021/11/13 00:42:53;;;;;;;20.83;11.00;;;;;;;0.44;66.34;93923.13;5091029;28;20020;-55
2021/11/13 00:45:18;;;;;;;18.58;11.40;;;;;;;0.58;66.98;93916.94;5110530;28;20024;-54
2021/11/13 00:47:44;;;;;;;27.00;13.48;;;;;;;0.65;66.98;93919.97;5110825;28;20024;-56
2021/11/13 00:50:12;;;;;;;28.50;15.80;;;;;;;0.57;67.29;93912.69;5110702;28;20464;-55
2021/11/13 00:52:38;;;;;;;25.33;14.93;;;;;;;0.58;66.89;93922.38;5110671;28;20454;-58
2021/11/13 00:55:04;;;;;;;31.58;16.38;;;;;;;0.42;67.82;93923.63;5110361;28;20168;-62
2021/11/13 00:57:30;;;;;;;22.10;14.27;;;;;;;0.40;67.29;93914.44;5110467;28;20059;-60
2021/11/13 00:59:55;;;;;;;24.65;14.38;;;;;;;0.38;67.29;93912.19;5110591;28;20023;-58
2021/11/13 01:02:21;;;;;;;28.85;15.55;;;;;;;0.44;66.89;93914.97;5102513;28;20020;-51
2021/11/13 01:04:46;;;;;;;29.08;17.73;;;;;;;0.18;67.90;93908.66;5090044;28;20025;-52
2021/11/13 01:07:12;;;;;;;25.50;15.45;;;;;;;-0.14;68.90;93903.00;5096994;28;20049;-53
2021/11/13 01:09:38;;;;;;;23.45;12.80;;;;;;;-0.12;68.52;93910.66;5101640;28;20088;-52
2021/11/13 01:12:04;;;;;;;24.58;13.63;;;;;;;0.12;68.35;93905.13;5102540;28;20381;-50
2021/11/13 01:14:30;;;;;;;20.98;13.10;;;;;;;0.07;68.76;93897.63;5104084;28;20027;-54
2021/11/13 01:16:55;;;;;;;20.92;12.30;;;;;;;0.00;68.69;93904.94;5102672;28;20516;-54
2021/11/13 01:19:21;;;;;;;23.05;13.15;;;;;;;-0.03;68.53;93891.56;5104451;28;20040;-56
2021/11/13 01:21:47;;;;;;;16.65;11.10;;;;;;;-0.27;68.93;93897.13;5102439;28;20027;-55
2021/11/13 01:24:13;;;;;;;15.55;9.02;;;;;;;-0.39;68.79;93892.69;5104300;28;20028;-60
2021/11/13 01:26:38;;;;;;;14.80;8.13;;;;;;;-0.40;68.73;93895.88;5102121;28;20040;-59
2021/11/13 01:29:04;;;;;;;16.95;10.40;;;;;;;-0.36;68.59;93889.06;5106058;28;20027;-56
2021/11/13 01:31:29;;;;;;;22.10;12.48;;;;;;;0.00;68.86;93880.53;5107304;28;20508;-56
2021/11/13 01:33:57;;;;;;;24.95;14.65;;;;;;;0.00;68.03;93883.22;5104195;28;20458;-59
2021/11/13 01:36:23;;;;;;;23.30;12.95;;;;;;;0.18;67.60;93885.00;5104966;28;20487;-58
2021/11/13 01:38:48;;;;;;;35.22;20.73;;;;;;;0.24;67.05;93887.81;5104335;28;20127;-61
2021/11/13 01:41:14;;;;;;;33.97;18.77;;;;;;;0.10;68.23;93881.16;5102973;28;20040;-59
2021/11/13 01:43:41;;;;;;;43.08;22.52;;;;;;;-0.11;68.76;93880.34;5102749;28;20258;-59
2021/11/13 01:46:09;;;;;;;32.22;16.85;;;;;;;-0.06;68.63;93873.50;5103304;28;20046;-59
2021/11/13 01:48:35;;;;;;;29.27;15.10;;;;;;;0.11;68.22;93879.94;5101598;28;20084;-59
2021/11/13 01:51:01;;;;;;;32.67;18.27;;;;;;;-0.28;68.54;93871.19;5103834;28;20019;-59
2021/11/13 01:53:29;;;;;;;26.25;14.38;;;;;;;-0.57;69.85;93870.44;5103164;28;20020;-59
2021/11/13 01:55:56;;;;;;;25.20;16.33;;;;;;;-0.61;69.70;93861.75;5101983;28;20020;-59
2021/11/13 01:58:23;;;;;;;32.05;18.98;;;;;;;-0.39;69.62;93864.84;5103068;28;20022;-60
2021/11/13 02:00:54;;;;;;;34.38;19.75;;;;;;;-0.22;68.71;93866.59;5102027;28;20640;-60
2021/11/13 02:03:21;;;;;;;33.17;17.63;;;;;;;-0.39;69.08;93862.88;5100078;28;20023;-63
2021/11/13 02:05:47;;;;;;;32.22;16.05;;;;;;;-0.45;69.78;93866.69;5093145;28;20059;-62
2021/11/13 02:08:13;;;;;;;38.45;19.08;;;;;;;-0.51;69.30;93866.63;5092701;28;20488;-60
2021/11/13 02:10:39;;;;;;;46.05;20.10;;;;;;;-0.29;68.86;93861.56;5092501;28;20114;-60
2021/11/13 02:13:04;;;;;;;31.02;16.30;;;;;;;-0.24;68.78;93857.44;5092670;28;20020;-60
2021/11/13 02:15:31;;;;;;;30.33;15.25;;;;;;;-0.23;68.88;93861.66;5092563;28;20028;-60
2021/11/13 02:17:59;;;;;;;38.28;20.33;;;;;;;-0.19;68.56;93864.91;5091375;28;20024;-61
2021/11/13 02:20:28;;;;;;;33.78;18.83;;;;;;;-0.17;68.54;93860.50;5092074;28;20031;-62
2021/11/13 02:22:56;;;;;;;34.42;17.60;;;;;;;-0.18;67.77;93859.03;5092514;28;20448;-61
2021/11/13 02:25:25;;;;;;;37.90;17.20;;;;;;;-0.15;67.85;93857.31;5092364;28;20512;-62
2021/11/13 02:27:50;;;;;;;29.98;17.30;;;;;;;-0.12;67.59;93862.56;5092402;28;20024;-62
2021/11/13 02:30:16;;;;;;;32.28;17.48;;;;;;;-0.46;68.56;93862.50;5092619;28;20035;-62
2021/11/13 02:32:43;;;;;;;48.22;20.88;;;;;;;-0.62;67.67;93868.38;5092513;28;20400;-62
2021/11/13 02:35:11;;;;;;;41.42;20.58;;;;;;;-0.33;67.77;93854.84;5092461;28;20034;-62
2021/11/13 02:37:37;;;;;;;45.05;23.13;;;;;;;-0.14;67.81;93856.88;5111275;28;20067;-62
2021/11/13 02:40:05;;;;;;;61.33;28.02;;;;;;;-0.04;67.71;93863.69;5112859;28;20020;-62
2021/11/13 02:42:32;;;;;;;49.47;23.95;;;;;;;-0.11;68.19;93863.34;5112287;28;20588;-61
2021/11/13 02:44:58;;;;;;;40.13;22.80;;;;;;;-0.11;68.24;93868.75;5112511;28;20068;-62
2021/11/13 02:47:24;;;;;;;52.80;26.88;;;;;;;-0.32;68.92;93867.91;5111495;28;20012;-62
2021/11/13 02:49:50;;;;;;;120.20;47.72;;;;;;;-0.27;68.71;93869.22;5112239;28;20019;-62
2021/11/13 02:52:15;;;;;;;93.32;39.40;;;;;;;-0.43;69.69;93873.16;5112109;28;20022;-62
2021/11/13 02:54:45;;;;;;;76.20;34.33;;;;;;;-0.12;68.90;93867.25;5112135;28;20028;-62
2021/11/13 02:57:11;;;;;;;68.05;27.50;;;;;;;-0.14;68.31;93867.72;5095801;28;20241;-62
2021/11/13 02:59:48;;;;;;;26.95;14.95;;;;;;;-0.53;68.44;93871.75;5092123;28;20555;-62
2021/11/13 03:02:14;;;;;;;28.10;14.32;;;;;;;-0.46;67.87;93879.53;5092011;28;20103;-62
2021/11/13 03:04:40;;;;;;;38.35;19.65;;;;;;;-0.35;68.00;93877.00;5092020;28;20085;-61
2021/11/13 03:07:07;;;;;;;63.22;30.90;;;;;;;-0.22;67.87;93871.28;5091980;28;20115;-61
2021/11/13 03:09:33;;;;;;;51.30;24.02;;;;;;;-0.20;67.33;93869.63;5091625;28;20024;-62
2021/11/13 03:11:59;;;;;;;59.53;26.83;;;;;;;-0.73;69.17;93870.88;5091539;28;20580;-59
2021/11/13 03:14:25;;;;;;;43.83;20.52;;;;;;;-1.04;70.27;93874.03;5091478;28;20023;-59
2021/11/13 03:16:50;;;;;;;40.17;20.55;;;;;;;-0.79;70.49;93868.84;5091461;28;20016;-60
2021/11/13 03:19:16;;;;;;;55.65;27.02;;;;;;;-0.67;70.01;93864.34;5091368;28;20073;-50
2021/11/13 03:21:43;;;;;;;44.75;22.20;;;;;;;-0.50;69.82;93867.38;5091395;28;20035;-50
2021/11/13 03:24:08;;;;;;;40.55;20.35;;;;;;;-0.57;68.55;93868.50;5091306;28;20107;-51
2021/11/13 03:26:34;;;;;;;40.70;21.65;;;;;;;-0.52;68.56;93865.09;5091467;28;20030;-49
2021/11/13 03:29:04;;;;;;;40.38;19.77;;;;;;;-0.57;69.10;93868.50;5091191;28;20016;-51
2021/11/13 03:31:30;;;;;;;43.78;24.38;;;;;;;-0.42;68.07;93868.50;5090265;28;20025;-50
2021/11/13 03:33:56;;;;;;;47.42;25.02;;;;;;;-0.37;68.84;93884.84;5110581;28;20034;-55
2021/11/13 03:36:22;;;;;;;49.83;24.10;;;;;;;-0.46;68.15;93881.50;5111275;28;20068;-59
2021/11/13 03:38:49;;;;;;;42.78;23.88;;;;;;;-0.45;68.72;93883.72;5111157;28;20529;-58
2021/11/13 03:41:16;;;;;;;38.85;22.17;;;;;;;-0.84;69.51;93872.19;5111364;28;20036;-59
2021/11/13 03:43:41;;;;;;;29.08;16.70;;;;;;;-1.08;70.34;93843.63;5111385;28;20025;-59
2021/11/13 03:46:07;;;;;;;22.85;13.35;;;;;;;-0.80;70.21;93872.00;5111600;28;20019;-57
2021/11/13 03:48:34;;;;;;;20.90;10.77;;;;;;;-0.88;69.77;93851.91;5111391;28;20408;-59
2021/11/13 03:50:59;;;;;;;16.98;9.23;;;;;;;-0.77;68.43;93873.78;5111136;28;20493;-58
2021/11/13 03:53:25;;;;;;;24.45;12.45;;;;;;;-0.82;67.73;93847.31;5111123;28;20034;-59
2021/11/13 03:55:50;;;;;;;29.75;14.35;;;;;;;-0.85;67.65;93875.38;5111317;28;20444;-58
2021/11/13 03:58:16;;;;;;;25.88;13.65;;;;;;;-0.96;69.35;93877.88;5098704;28;20027;-59
2021/11/13 04:00:41;;;;;;;35.38;15.98;;;;;;;-0.72;69.14;93872.41;5093827;28;20027;-61
2021/11/13 04:03:07;;;;;;;50.15;24.00;;;;;;;-0.57;68.21;93875.88;5104104;27;20018;-61
2021/11/13 04:05:32;;;;;;;46.33;24.88;;;;;;;-0.46;68.24;93876.06;5098530;28;20035;-61
2021/11/13 04:07:58;;;;;;;57.25;24.35;;;;;;;-0.72;69.42;93867.72;5099909;28;20023;-59
2021/11/13 04:10:23;;;;;;;46.78;24.88;;;;;;;-0.76;69.98;93878.75;5103245;28;20019;-59
2021/11/13 04:12:49;;;;;;;55.38;26.45;;;;;;;-1.28;70.30;93811.75;5101100;28;20103;-56
2021/11/13 04:15:15;;;;;;;51.13;25.80;;;;;;;-0.76;69.57;93883.44;5099557;28;20040;-53
2021/11/13 04:17:41;;;;;;;53.00;28.17;;;;;;;-0.72;69.81;93884.00;5101990;28;20020;-55
2021/11/13 04:20:09;;;;;;;59.42;27.70;;;;;;;-0.95;70.23;93879.34;5100953;28;20497;-53
2021/11/13 04:22:35;;;;;;;74.25;26.92;;;;;;;-0.90;70.37;93882.19;5105508;28;20110;-56
2021/11/13 04:25:02;;;;;;;45.47;22.52;;;;;;;-0.84;69.92;93883.03;5110879;28;20047;-56
2021/11/13 04:27:27;;;;;;;51.78;24.75;;;;;;;-0.97;70.04;93890.66;5110629;28;20019;-55
2021/11/13 04:29:53;;;;;;;45.63;23.02;;;;;;;-0.77;69.64;93888.09;5092846;28;20024;-57
2021/11/13 04:32:18;;;;;;;45.03;23.50;;;;;;;-0.77;69.69;93887.34;5089924;28;20024;-57
2021/11/13 04:37:22;;;;;;;25.27;14.15;;;;;;;-1.42;70.04;93874.00;5089796;28;20055;-56
2021/11/13 04:39:48;;;;;;;16.00;9.45;;;;;;;-1.30;69.67;93881.16;5090551;28;20085;-52
2021/11/13 04:42:14;;;;;;;23.58;12.50;;;;;;;-1.41;69.39;93891.75;5090054;28;20089;-51
2021/11/13 04:44:40;;;;;;;27.48;14.38;;;;;;;-1.28;68.60;93895.72;5093003;28;20678;-52
2021/11/13 04:47:07;;;;;;;25.30;14.25;;;;;;;-1.62;69.82;93901.63;5094634;28;20131;-52
2021/11/13 04:49:32;;;;;;;33.78;16.27;;;;;;;-1.31;69.93;93904.00;5094511;28;20080;-51
2021/11/13 04:51:59;;;;;;;27.95;15.20;;;;;;;-1.23;70.05;93902.44;5094256;28;20028;-51
2021/11/13 04:54:25;;;;;;;38.50;18.20;;;;;;;-1.17;69.88;93889.78;5092871;28;20028;-51
2021/11/13 04:56:50;;;;;;;41.78;18.75;;;;;;;-1.12;69.57;93899.97;5094383;28;20035;-52
2021/11/13 04:59:17;;;;;;;43.08;20.05;;;;;;;-1.23;69.37;93908.63;5094043;28;20024;-51
2021/11/13 05:01:42;;;;;;;54.42;27.63;;;;;;;-1.27;69.23;93904.59;5096159;28;20032;-51
2021/11/13 05:04:08;;;;;;;35.13;20.65;;;;;;;-1.23;69.41;93908.63;5114418;28;20057;-55
2021/11/13 05:06:33;;;;;;;37.40;20.10;;;;;;;-1.12;68.98;93898.00;5114550;28;20027;-51
2021/11/13 05:08:59;;;;;;;31.17;16.52;;;;;;;-1.12;69.17;93903.44;5114322;28;20023;-52
2021/11/13 05:11:24;;;;;;;25.17;12.60;;;;;;;-1.52;69.45;93900.38;5114245;28;20035;-50
2021/11/13 05:13:50;;;;;;;21.65;13.63;;;;;;;-1.45;69.38;93893.88;5114461;28;20027;-52
2021/11/13 05:16:16;;;;;;;33.78;18.90;;;;;;;-1.39;69.58;93894.75;5114177;28;20409;-51
2021/11/13 05:18:41;;;;;;;49.58;23.02;;;;;;;-1.31;69.47;93898.59;5113976;28;20084;-54
2021/11/13 05:21:07;;;;;;;41.50;22.83;;;;;;;-1.16;69.64;93894.72;5114383;28;20107;-53
2021/11/13 05:23:32;;;;;;;43.72;22.13;;;;;;;-1.50;69.83;93900.69;5113850;28;20495;-50
2021/11/13 05:25:58;;;;;;;43.85;22.40;;;;;;;-1.52;70.39;93896.94;5097559;28;20035;-53
2021/11/13 05:28:23;;;;;;;31.60;17.98;;;;;;;-1.68;70.23;93871.00;5093451;28;20039;-54
2021/11/13 05:30:49;;;;;;;17.20;10.10;;;;;;;-1.62;69.78;93902.38;5092243;28;20028;-54
2021/11/13 05:33:14;;;;;;;19.35;13.65;;;;;;;-1.71;69.87;93912.53;5093531;28;20077;-51
2021/11/13 05:35:40;;;;;;;34.38;22.65;;;;;;;-1.61;69.98;93911.25;5096543;28;20488;-51
2021/11/13 05:38:05;;;;;;;42.47;23.05;;;;;;;-1.45;69.50;93908.16;5113638;28;20048;-54
2021/11/13 05:40:31;;;;;;;39.10;20.95;;;;;;;-1.38;69.61;93907.06;5113679;28;20028;-52
2021/11/13 05:42:57;;;;;;;37.63;22.23;;;;;;;-1.32;69.27;93919.50;5113698;28;20027;-51
2021/11/13 05:45:22;;;;;;;34.67;19.88;;;;;;;-1.33;69.23;93912.59;5113814;28;20107;-54
2021/11/13 05:47:49;;;;;;;33.85;21.27;;;;;;;-1.43;70.18;93915.84;5113244;28;20473;-55
2021/11/13 05:50:16;;;;;;;49.15;26.58;;;;;;;-1.38;69.90;93913.22;5113036;27;20023;-53
2021/11/13 05:52:43;;;;;;;52.08;28.50;;;;;;;-1.12;69.14;93924.34;5112933;27;20034;-55
2021/11/13 05:55:10;;;;;;;47.20;27.25;;;;;;;-1.24;70.27;93917.97;5100892;28;20027;-57
2021/11/13 05:57:36;;;;;;;52.38;29.63;;;;;;;-1.07;69.15;93927.19;5112613;28;20039;-52
2021/11/13 06:00:04;;;;;;;60.72;34.78;;;;;;;-1.10;69.87;93928.09;5113138;28;20057;-54
2021/11/13 06:02:30;;;;;;;99.35;52.95;;;;;;;-1.10;69.25;93911.84;5112597;28;20027;-56
2021/11/13 06:04:55;;;;;;;107.80;56.40;;;;;;;-0.91;69.26;93931.44;5111469;28;20036;-53
2021/11/13 06:07:20;;;;;;;109.65;57.72;;;;;;;-0.79;69.08;93935.84;5113195;28;20027;-54
2021/11/13 06:09:46;;;;;;;103.53;57.38;;;;;;;-0.82;69.26;93934.06;5113079;28;20026;-60
2021/11/13 06:12:11;;;;;;;85.68;41.45;;;;;;;-1.01;70.05;93933.47;5111500;27;20032;-59
2021/11/13 06:14:37;;;;;;;93.10;48.05;;;;;;;-1.18;70.90;93937.03;5111511;28;20084;-57
2021/11/13 06:17:03;;;;;;;87.95;46.25;;;;;;;-1.18;71.09;93939.75;5111161;28;20516;-60
2021/11/13 06:19:29;;;;;;;81.85;46.67;;;;;;;-1.30;71.46;93938.03;5111058;28;20028;-59
2021/11/13 06:21:54;;;;;;;77.25;41.83;;;;;;;-1.28;71.73;93936.38;5111515;28;20031;-60
2021/11/13 06:24:20;;;;;;;69.57;36.67;;;;;;;-1.21;72.10;93941.41;5111001;28;20034;-56
2021/11/13 06:26:45;;;;;;;57.00;32.35;;;;;;;-1.13;71.96;93939.88;5112275;28;20027;-56
2021/11/13 06:29:11;;;;;;;72.60;40.72;;;;;;;-0.93;71.92;93950.09;5104425;28;20015;-59
2021/11/13 06:31:36;;;;;;;88.53;46.00;;;;;;;-0.93;71.74;93925.72;5092527;28;20382;-58
2021/11/13 06:34:02;;;;;;;72.47;41.70;;;;;;;-0.50;70.73;93944.06;5092452;28;20413;-57
2021/11/13 06:36:27;;;;;;;73.20;43.15;;;;;;;-0.31;70.19;93939.22;5101799;28;20475;-61
2021/11/13 06:38:53;;;;;;;78.30;43.63;;;;;;;-0.23;70.10;93941.09;5103179;28;20048;-60
2021/11/13 06:41:19;;;;;;;83.53;46.60;;;;;;;-0.03;70.65;93938.47;5094113;28;20032;-64
2021/11/13 06:43:45;;;;;;;67.28;41.58;;;;;;;0.43;69.67;93937.94;5092062;28;20528;-58
2021/11/13 06:46:10;;;;;;;75.53;42.63;;;;;;;1.02;68.16;93936.53;5092420;28;20036;-59
2021/11/13 06:48:35;;;;;;;72.43;40.28;;;;;;;1.75;65.86;93941.59;5112583;28;20036;-49
2021/11/13 06:51:01;;;;;;;67.90;39.45;;;;;;;2.41;64.24;93943.38;5112495;28;20019;-60
2021/11/13 06:53:26;;;;;;;60.13;36.08;;;;;;;3.22;61.69;93943.66;5112613;28;20027;-60
2021/11/13 06:55:52;;;;;;;58.75;33.50;;;;;;;4.04;58.97;93939.69;5107141;28;20489;-58
2021/11/13 06:58:18;;;;;;;53.67;32.28;;;;;;;4.54;57.56;93941.22;5100372;28;20044;-56
2021/11/13 07:00:43;;;;;;;56.85;36.67;;;;;;;4.50;57.90;93946.16;5107938;28;20106;-55
2021/11/13 07:03:09;;;;;;;85.72;50.80;;;;;;;4.15;58.97;93939.69;5108748;28;20476;-53
2021/11/13 07:05:35;;;;;;;238.93;114.00;;;;;;;3.80;61.22;93940.13;5111203;28;20102;-54
2021/11/13 07:08:00;;;;;;;73.22;43.00;;;;;;;4.12;61.36;93938.69;5097676;28;20020;-57
2021/11/13 07:10:27;;;;;;;34.58;22.15;;;;;;;4.58;60.24;93930.03;5091520;28;20509;-60
2021/11/13 07:12:54;;;;;;;41.30;28.73;;;;;;;5.29;58.79;93926.41;5091784;28;20053;-59
2021/11/13 07:15:19;;;;;;;50.92;32.97;;;;;;;6.43;56.27;93938.50;5090105;28;20032;-57
2021/11/13 07:17:45;;;;;;;31.15;19.73;;;;;;;7.02;54.57;93928.81;5089897;28;20099;-57
2021/11/13 07:20:12;;;;;;;27.73;18.77;;;;;;;7.34;53.89;93930.44;5089902;28;20027;-56
2021/11/13 07:22:39;;;;;;;22.70;16.63;;;;;;;7.57;53.12;93919.94;5108492;28;20088;-56
2021/11/13 07:25:11;;;;;;;23.48;15.98;;;;;;;8.03;52.42;93924.38;5109133;28;20099;-57
2021/11/13 07:27:37;;;;;;;28.13;18.23;;;;;;;8.70;50.46;93924.16;5109137;28;20024;-57
2021/11/13 07:30:04;;;;;;;30.15;20.00;;;;;;;9.55;48.11;93918.09;5109558;28;20027;-58
2021/11/13 07:32:30;;;;;;;39.03;22.98;;;;;;;9.94;46.99;93914.56;5110382;28;20028;-57
2021/11/13 07:34:56;;;;;;;18.25;12.63;;;;;;;10.00;46.78;93919.97;5110218;28;20031;-56
2021/11/13 07:37:21;;;;;;;18.05;12.80;;;;;;;9.54;48.66;93911.13;5095891;27;20051;-58
2021/11/13 07:39:47;;;;;;;23.55;12.77;;;;;;;11.21;45.25;93919.16;5104679;28;20500;-51
2021/11/13 07:42:12;;;;;;;22.17;14.48;;;;;;;12.55;42.05;93917.66;5111206;28;20464;-59
2021/11/13 07:44:38;;;;;;;20.77;14.10;;;;;;;13.60;40.69;93911.41;5099841;28;20118;-58
2021/11/13 07:47:04;;;;;;;22.70;15.07;;;;;;;14.58;38.64;93904.06;5110280;28;20480;-55
2021/11/13 07:49:29;;;;;;;21.75;14.07;;;;;;;15.74;37.07;93921.59;5109571;28;20412;-58
2021/11/13 07:51:55;;;;;;;20.35;13.18;;;;;;;16.16;35.96;93913.91;5111271;28;20028;-56
2021/11/13 07:54:20;;;;;;;25.80;14.52;;;;;;;17.21;33.89;93911.06;5110822;28;20058;-54
2021/11/13 07:56:46;;;;;;;37.97;17.52;;;;;;;18.07;32.20;93911.28;5111063;28;20031;-53
2021/11/13 07:59:13;;;;;;;23.73;16.98;;;;;;;18.57;30.77;93909.41;5111097;28;20027;-55
2021/11/13 08:01:39;;;;;;;45.50;27.00;;;;;;;19.09;29.71;93912.38;5109497;27;20093;-60
2021/11/13 08:04:04;;;;;;;37.17;22.98;;;;;;;19.62;29.45;93911.88;5109660;28;20031;-51
2021/11/13 08:06:30;;;;;;;28.55;18.70;;;;;;;20.22;27.87;93906.84;5109424;28;20031;-48
2021/11/13 08:08:55;;;;;;;33.88;22.17;;;;;;;20.82;27.80;93907.19;5109537;28;20465;-57
2021/11/13 08:11:21;;;;;;;35.70;21.48;;;;;;;21.44;26.71;93901.25;5109344;28;20023;-53
2021/11/13 08:13:47;;;;;;;34.92;21.90;;;;;;;22.04;25.69;93898.53;5106173;28;20024;-56
2021/11/13 08:16:12;;;;;;;29.45;19.27;;;;;;;22.33;25.22;93907.25;5109377;28;20106;-60
2021/11/13 08:18:38;;;;;;;24.13;16.73;;;;;;;22.45;24.44;93905.91;5103540;28;20093;-57
2021/11/13 08:21:04;;;;;;;26.13;17.20;;;;;;;22.47;24.63;93908.09;5098584;28;20032;-58
2021/11/13 08:23:30;;;;;;;26.27;19.52;;;;;;;22.61;23.89;93908.91;5100086;28;20020;-58
2021/11/13 08:25:56;;;;;;;35.75;22.25;;;;;;;22.97;24.14;93910.22;5099996;28;20020;-58
2021/11/13 08:28:22;;;;;;;36.60;23.42;;;;;;;23.50;23.30;93911.03;5100937;28;20031;-58
2021/11/13 08:30:48;;;;;;;31.17;21.05;;;;;;;23.96;23.67;93911.38;5097700;28;20110;-58
2021/11/13 08:33:14;;;;;;;29.17;21.38;;;;;;;23.88;23.56;93891.22;5097576;28;20027;-57
2021/11/13 08:35:42;;;;;;;23.95;19.38;;;;;;;24.48;23.17;93898.50;5102330;28;20462;-55
2021/11/13 08:38:10;;;;;;;21.88;17.40;;;;;;;24.89;22.25;93899.13;5099053;28;20461;-56
2021/11/13 08:40:37;;;;;;;24.63;19.67;;;;;;;25.35;22.52;93907.00;5095747;28;20055;-58
2021/11/13 08:43:03;;;;;;;24.42;18.52;;;;;;;25.36;22.08;93894.28;5097634;28;20019;-59
2021/11/13 08:45:28;;;;;;;38.42;23.98;;;;;;;25.56;21.58;93898.09;5095536;28;20474;-57
2021/11/13 08:47:54;;;;;;;33.58;22.67;;;;;;;25.67;21.86;93895.72;5097744;28;20019;-55
2021/11/13 08:50:23;;;;;;;16.52;12.82;;;;;;;25.89;21.49;93896.72;5104141;28;20031;-57
2021/11/13 08:52:50;;;;;;;26.42;17.15;;;;;;;26.05;21.58;93886.81;5107934;28;20031;-55
2021/11/13 08:55:17;;;;;;;25.15;17.15;;;;;;;23.02;23.49;93884.47;5107840;28;20066;-53
2021/11/13 08:57:46;;;;;;;17.45;13.48;;;;;;;23.92;23.26;93882.97;5108079;28;20470;-57
2021/11/13 09:00:16;;;;;;;13.45;11.05;;;;;;;24.48;22.24;93875.91;5107869;28;20111;-54
2021/11/13 09:02:42;;;;;;;5.47;4.25;;;;;;;24.76;21.63;93861.09;5106220;28;20024;-54
2021/11/13 09:05:08;;;;;;;7.53;6.25;;;;;;;25.73;21.55;93873.38;5106919;28;20027;-55
2021/11/13 09:07:34;;;;;;;10.57;4.78;;;;;;;25.99;20.45;93875.25;5106887;28;20595;-54
2021/11/13 09:10:00;;;;;;;4.32;3.22;;;;;;;25.62;20.12;93872.16;5108414;28;20107;-55
2021/11/13 09:12:27;;;;;;;4.10;3.17;;;;;;;25.65;19.54;93870.91;5099051;28;20176;-54
2021/11/13 09:15:04;;;;;;;5.75;4.10;;;;;;;25.80;20.36;93869.41;5090061;28;20039;-54
2021/11/13 09:17:31;;;;;;;3.95;3.25;;;;;;;24.96;20.51;93867.00;5087705;28;20092;-54
2021/11/13 09:19:57;;;;;;;4.60;3.28;;;;;;;25.26;19.67;93870.50;5087760;28;20101;-55
2021/11/13 09:22:22;;;;;;;3.58;2.80;;;;;;;24.09;21.13;93864.81;5087363;28;20572;-55
2021/11/13 09:24:48;;;;;;;4.38;3.30;;;;;;;23.13;21.58;93854.78;5087611;28;20032;-53
2021/11/13 09:27:14;;;;;;;7.15;3.90;;;;;;;22.15;23.49;93855.59;5087499;28;20024;-54
2021/11/13 09:29:39;;;;;;;6.00;3.92;;;;;;;22.77;23.29;93855.59;5087587;28;20474;-52
2021/11/13 09:32:05;;;;;;;6.18;3.25;;;;;;;23.38;21.59;93854.75;5095830;28;20106;-54
2021/11/13 09:34:31;;;;;;;6.55;4.30;;;;;;;23.37;21.83;93846.94;5113435;28;20024;-55
2021/11/13 09:36:56;;;;;;;5.00;3.15;;;;;;;22.67;22.60;93855.78;5099252;28;20116;-53
2021/11/13 09:39:22;;;;;;;4.55;2.78;;;;;;;22.41;22.94;93848.66;5093223;28;20036;-53
2021/11/13 09:41:48;;;;;;;5.15;3.15;;;;;;;23.01;21.36;93848.47;5093653;28;20062;-55
2021/11/13 09:44:14;;;;;;;4.22;3.00;;;;;;;23.78;20.94;93848.38;5093536;28;20016;-55
2021/11/13 09:46:40;;;;;;;8.18;5.25;;;;;;;24.54;20.84;93847.97;5093088;28;20031;-55
2021/11/13 09:49:06;;;;;;;5.18;3.00;;;;;;;24.80;18.52;93850.00;5093142;28;20485;-54
2021/11/13 09:51:32;;;;;;;5.13;2.53;;;;;;;24.61;18.13;93841.25;5093160;28;20066;-56
2021/11/13 09:53:58;;;;;;;4.10;2.00;;;;;;;24.79;18.91;93839.34;5093418;28;20045;-53
2021/11/13 09:56:24;;;;;;;3.60;2.90;;;;;;;24.32;18.53;93832.78;5093136;28;20138;-53
2021/11/13 09:58:50;;;;;;;3.38;2.55;;;;;;;23.95;18.89;93804.84;5093280;28;20089;-53
2021/11/13 10:01:17;;;;;;;11.38;2.80;;;;;;;24.05;19.78;93836.38;5092869;28;20073;-53
2021/11/13 10:03:47;;;;;;;3.92;2.35;;;;;;;23.77;19.18;93824.38;5092769;28;20028;-53
2021/11/13 10:06:14;;;;;;;4.78;3.50;;;;;;;23.31;19.63;93819.84;5092851;28;20485;-52
2021/11/13 10:08:46;;;;;;;2.72;2.42;;;;;;;24.33;18.96;93820.13;5092722;28;20073;-53
2021/11/13 10:11:17;;;;;;;4.90;2.35;;;;;;;24.27;17.92;93812.09;5102246;28;20073;-50
2021/11/13 10:13:53;;;;;;;6.60;2.60;;;;;;;24.52;18.07;93808.34;5113366;28;20019;-54
2021/11/13 10:16:29;;;;;;;5.20;2.83;;;;;;;24.27;18.75;93814.19;5113239;28;20031;-52
2021/11/13 10:18:55;;;;;;;3.50;2.20;;;;;;;24.17;18.19;93805.94;5113193;28;20028;-51
2021/11/13 10:21:27;;;;;;;3.85;2.42;;;;;;;24.92;17.29;93793.34;5112999;27;20462;-56
2021/11/13 10:24:04;;;;;;;3.47;2.40;;;;;;;24.87;16.91;93785.31;5112866;28;20077;-56
2021/11/13 10:26:35;;;;;;;4.15;2.38;;;;;;;24.69;18.15;93793.63;5113058;28;20019;-54
2021/11/13 10:29:05;;;;;;;3.10;2.30;;;;;;;24.96;17.85;93804.09;5111673;28;20035;-56
2021/11/13 10:31:40;;;;;;;3.17;2.50;;;;;;;24.95;17.59;93797.72;5113350;28;20081;-56
2021/11/13 10:34:07;;;;;;;4.55;2.28;;;;;;;25.32;16.47;93798.00;5112713;28;20102;-56
2021/11/13 10:36:41;;;;;;;3.17;2.20;;;;;;;24.99;17.38;93794.38;5101606;28;20077;-56
2021/11/13 10:39:12;;;;;;;5.10;2.63;;;;;;;24.90;17.08;93790.44;5092464;28;20063;-57
2021/11/13 10:41:48;;;;;;;2.88;2.55;;;;;;;24.40;16.98;93785.94;5092356;28;20024;-56
2021/11/13 10:44:17;;;;;;;3.95;3.05;;;;;;;24.30;18.08;93781.91;5092335;28;20081;-55
2021/11/13 10:46:44;;;;;;;;;;;;;;;24.26;17.20;93781.69;5092875;28;20077;-56
2021/11/13 10:49:10;;;;;;;4.00;2.22;;;;;;;23.64;17.46;93780.00;5092073;28;20010;-56
2021/11/13 10:51:38;;;;;;;4.70;4.10;;;;;;;23.29;18.54;93774.66;5092197;28;20031;-57
2021/11/13 10:54:14;;;;;;;6.65;3.85;;;;;;;23.12;19.36;93766.00;5091975;28;20493;-54
2021/11/13 10:56:48;;;;;;;3.03;2.15;;;;;;;22.93;18.90;93772.03;5091781;28;20031;-52
2021/11/13 10:59:14;;;;;;;6.68;2.45;;;;;;;23.85;19.09;93762.00;5091724;28;20024;-53
2021/11/13 11:01:45;;;;;;;4.63;3.55;;;;;;;23.91;18.62;93771.50;5092059;28;20024;-51
2021/11/13 11:04:12;;;;;;;6.72;2.38;;;;;;;23.78;19.15;93752.53;5091742;28;20066;-52
2021/11/13 11:06:38;;;;;;;4.57;2.60;;;;;;;23.53;19.30;93744.22;5102842;28;20129;-51
2021/11/13 11:09:24;;;;;;;4.47;3.05;;;;;;;23.07;19.48;93753.03;5112241;28;20027;-52
2021/11/13 11:11:55;;;;;;;4.10;2.50;;;;;;;22.87;20.17;93761.16;5112140;28;20031;-53
2021/11/13 11:14:24;;;;;;;9.48;2.92;;;;;;;23.03;19.54;93745.13;5112114;28;20067;-52
2021/11/13 11:16:53;;;;;;;4.03;2.88;;;;;;;22.26;22.04;93740.19;5112286;28;20515;-52
2021/11/13 11:19:39;;;;;;;4.88;2.95;;;;;;;21.58;23.19;93750.34;5111749;28;20036;-49
2021/11/13 11:22:12;;;;;;;3.75;2.90;;;;;;;21.68;22.88;93745.31;5111609;28;20031;-50